sensor_id;sensor_type;location;lat;lon;timestamp;pressure;altitude;pressure_sealevel;temperature;humidity
56182;BME280;51963;46.052;14.544;2024-03-02T00:00:23;97469.56;;;8.18;100.00
56182;BME280;51963;46.052;14.544;2024-03-02T00:02:55;97459.84;;;8.19;100.00
56182;BME280;51963;46.052;14.544;2024-03-02T00:05:22;97467.97;;;8.24;100.00
56182;BME280;51963;46.052;14.544;2024-03-02T00:08:08;97465.31;;;8.24;100.00
56182;BME280;51963;46.052;14.544;2024-03-02T00:10:40;97455.19;;;8.21;100.00
56182;BME280;51963;46.052;14.544;2024-03-02T00:13:07;97420.44;;;7.97;100.00
56182;BME280;51963;46.052;14.544;2024-03-02T00:16:17;97426.25;;;7.86;100.00
56182;BME280;51963;46.052;14.544;2024-03-02T00:18:44;97471.59;;;8.16;100.00
56182;BME280;51963;46.052;14.544;2024-03-02T00:21:09;97442.59;;;7.81;100.00
56182;BME280;51963;46.052;14.544;2024-03-02T00:23:38;97470.22;;;7.92;100.00
56182;BME280;51963;46.052;14.544;2024-03-02T00:26:11;97484.22;;;7.99;100.00
56182;BME280;51963;46.052;14.544;2024-03-02T00:28:44;97467.19;;;7.95;100.00
56182;BME280;51963;46.052;14.544;2024-03-02T00:31:13;97468.19;;;7.94;100.00
56182;BME280;51963;46.052;14.544;2024-03-02T00:33:46;97470.22;;;7.92;100.00
56182;BME280;51963;46.052;14.544;2024-03-02T00:36:14;97442.41;;;7.83;100.00
56182;BME280;51963;46.052;14.544;2024-03-02T00:39:00;97478.81;;;8.07;100.00
56182;BME280;51963;46.052;14.544;2024-03-02T00:41:49;97439.56;;;7.84;100.00
56182;BME280;51963;46.052;14.544;2024-03-02T00:44:15;97492.59;;;8.10;100.00
56182;BME280;51963;46.052;14.544;2024-03-02T00:46:51;97447.06;;;7.81;100.00
56182;BME280;51963;46.052;14.544;2024-03-02T00:49:26;97485.22;;;7.98;100.00
56182;BME280;51963;46.052;14.544;2024-03-02T00:51:58;97463.47;;;7.83;100.00
56182;BME280;51963;46.052;14.544;2024-03-02T00:54:26;97487.06;;;7.98;100.00
56182;BME280;51963;46.052;14.544;2024-03-02T00:57:01;97490.72;;;8.03;100.00
56182;BME280;51963;46.052;14.544;2024-03-02T00:59:27;97455.59;;;7.89;100.00
56182;BME280;51963;46.052;14.544;2024-03-02T01:01:53;97458.44;;;7.88;100.00
56182;BME280;51963;46.052;14.544;2024-03-02T01:04:19;97462.53;;;7.97;100.00
56182;BME280;51963;46.052;14.544;2024-03-02T01:06:48;97490.09;;;8.01;100.00
56182;BME280;51963;46.052;14.544;2024-03-02T01:09:13;97478.09;;;7.92;100.00
56182;BME280;51963;46.052;14.544;2024-03-02T01:11:39;97488.47;;;8.00;100.00
56182;BME280;51963;46.052;14.544;2024-03-02T01:14:05;97498.59;;;7.97;100.00
56182;BME280;51963;46.052;14.544;2024-03-02T01:16:31;97478.25;;;7.84;100.00
56182;BME280;51963;46.052;14.544;2024-03-02T01:18:59;97480.25;;;7.82;100.00
56182;BME280;51963;46.052;14.544;2024-03-02T01:21:25;97491.44;;;7.90;100.00
56182;BME280;51963;46.052;14.544;2024-03-02T01:23:51;97486.31;;;7.82;100.00
56182;BME280;51963;46.052;14.544;2024-03-02T01:26:16;97487.16;;;7.83;100.00
56182;BME280;51963;46.052;14.544;2024-03-02T01:28:42;97479.00;;;7.77;100.00
56182;BME280;51963;46.052;14.544;2024-03-02T01:31:08;97477.47;;;7.90;100.00
56182;BME280;51963;46.052;14.544;2024-03-02T01:33:33;97472.53;;;7.80;100.00
56182;BME280;51963;46.052;14.544;2024-03-02T01:35:59;97472.53;;;7.80;100.00
56182;BME280;51963;46.052;14.544;2024-03-02T01:38:25;97489.19;;;7.87;100.00
56182;BME280;51963;46.052;14.544;2024-03-02T01:40:50;97484.31;;;7.84;100.00
56182;BME280;51963;46.052;14.544;2024-03-02T01:43:17;97468.78;;;7.61;100.00
56182;BME280;51963;46.052;14.544;2024-03-02T01:45:54;97489.84;;;7.68;100.00
56182;BME280;51963;46.052;14.544;2024-03-02T01:48:31;97484.13;;;7.57;100.00
56182;BME280;51963;46.052;14.544;2024-03-02T01:50:57;97446.00;;;7.46;100.00
56182;BME280;51963;46.052;14.544;2024-03-02T01:53:23;97452.75;;;7.56;100.00
56182;BME280;51963;46.052;14.544;2024-03-02T01:55:49;97479.72;;;7.64;100.00
56182;BME280;51963;46.052;14.544;2024-03-02T01:58:33;97456.91;;;7.43;100.00
56182;BME280;51963;46.052;14.544;2024-03-02T02:00:58;97456.03;;;7.36;100.00
56182;BME280;51963;46.052;14.544;2024-03-02T02:03:24;97462.69;;;7.32;100.00
56182;BME280;51963;46.052;14.544;2024-03-02T02:05:50;97450.16;;;7.34;100.00
56182;BME280;51963;46.052;14.544;2024-03-02T02:08:18;97474.03;;;7.61;100.00
56182;BME280;51963;46.052;14.544;2024-03-02T02:10:46;97478.91;;;7.64;100.00
56182;BME280;51963;46.052;14.544;2024-03-02T02:13:11;97475.31;;;7.72;100.00
56182;BME280;51963;46.052;14.544;2024-03-02T02:15:37;97475.38;;;7.78;100.00
56182;BME280;51963;46.052;14.544;2024-03-02T02:18:03;97463.56;;;7.68;100.00
56182;BME280;51963;46.052;14.544;2024-03-02T02:20:33;97429.41;;;7.46;100.00
56182;BME280;51963;46.052;14.544;2024-03-02T02:23:00;97446.09;;;7.60;100.00
56182;BME280;51963;46.052;14.544;2024-03-02T02:25:31;97439.16;;;7.52;100.00
56182;BME280;51963;46.052;14.544;2024-03-02T02:27:57;97432.47;;;7.49;100.00
56182;BME280;51963;46.052;14.544;2024-03-02T02:30:25;97436.16;;;7.55;100.00
56182;BME280;51963;46.052;14.544;2024-03-02T02:32:51;97429.84;;;7.49;100.00
56182;BME280;51963;46.052;14.544;2024-03-02T02:35:20;97460.28;;;7.66;100.00
56182;BME280;51963;46.052;14.544;2024-03-02T02:37:47;97456.66;;;7.67;100.00
56182;BME280;51963;46.052;14.544;2024-03-02T02:40:13;97419.84;;;7.38;100.00
56182;BME280;51963;46.052;14.544;2024-03-02T02:42:39;97426.69;;;7.61;100.00
56182;BME280;51963;46.052;14.544;2024-03-02T02:45:12;97434.47;;;7.47;100.00
56182;BME280;51963;46.052;14.544;2024-03-02T02:47:41;97433.97;;;7.59;100.00
56182;BME280;51963;46.052;14.544;2024-03-02T02:50:11;97448.22;;;7.71;100.00
56182;BME280;51963;46.052;14.544;2024-03-02T02:52:44;97435.84;;;7.72;100.00
56182;BME280;51963;46.052;14.544;2024-03-02T02:55:11;97453.97;;;7.88;100.00
56182;BME280;51963;46.052;14.544;2024-03-02T02:58:03;97457.03;;;7.92;100.00
56182;BME280;51963;46.052;14.544;2024-03-02T03:00:28;97457.81;;;7.86;100.00
56182;BME280;51963;46.052;14.544;2024-03-02T03:02:54;97461.25;;;7.86;100.00
56182;BME280;51963;46.052;14.544;2024-03-02T03:05:44;97466.50;;;7.86;100.00
56182;BME280;51963;46.052;14.544;2024-03-02T03:08:35;97433.03;;;7.73;100.00
56182;BME280;51963;46.052;14.544;2024-03-02T03:11:00;97433.75;;;7.89;100.00
56182;BME280;51963;46.052;14.544;2024-03-02T03:13:26;97420.75;;;7.81;100.00
56182;BME280;51963;46.052;14.544;2024-03-02T03:15:55;97421.66;;;8.01;100.00
56182;BME280;51963;46.052;14.544;2024-03-02T03:18:46;97431.81;;;8.04;100.00
56182;BME280;51963;46.052;14.544;2024-03-02T03:21:40;97397.22;;;7.72;100.00
56182;BME280;51963;46.052;14.544;2024-03-02T03:24:09;97394.88;;;7.56;100.00
56182;BME280;51963;46.052;14.544;2024-03-02T03:26:38;97440.19;;;7.86;100.00
56182;BME280;51963;46.052;14.544;2024-03-02T03:29:07;97450.31;;;7.83;100.00
56182;BME280;51963;46.052;14.544;2024-03-02T03:31:32;97424.75;;;7.76;100.00
56182;BME280;51963;46.052;14.544;2024-03-02T03:33:58;97458.28;;;7.96;100.00
56182;BME280;51963;46.052;14.544;2024-03-02T03:36:24;97420.31;;;7.77;100.00
56182;BME280;51963;46.052;14.544;2024-03-02T03:38:53;97444.66;;;7.86;100.00
56182;BME280;51963;46.052;14.544;2024-03-02T03:41:19;97441.41;;;7.84;100.00
56182;BME280;51963;46.052;14.544;2024-03-02T03:43:45;97441.41;;;7.84;100.00
56182;BME280;51963;46.052;14.544;2024-03-02T03:46:19;97418.19;;;7.66;100.00
56182;BME280;51963;46.052;14.544;2024-03-02T03:48:45;97434.75;;;7.88;100.00
56182;BME280;51963;46.052;14.544;2024-03-02T03:51:10;97408.50;;;7.66;100.00
56182;BME280;51963;46.052;14.544;2024-03-02T03:53:39;97424.53;;;7.71;100.00
56182;BME280;51963;46.052;14.544;2024-03-02T03:56:05;97408.06;;;7.62;100.00
56182;BME280;51963;46.052;14.544;2024-03-02T03:58:30;97431.03;;;7.75;100.00
56182;BME280;51963;46.052;14.544;2024-03-02T04:00:56;97410.47;;;7.57;100.00
56182;BME280;51963;46.052;14.544;2024-03-02T04:03:22;97434.19;;;7.64;100.00
56182;BME280;51963;46.052;14.544;2024-03-02T04:05:47;97451.88;;;7.77;100.00
56182;BME280;51963;46.052;14.544;2024-03-02T04:08:13;97432.81;;;7.68;100.00
56182;BME280;51963;46.052;14.544;2024-03-02T04:10:41;97461.22;;;7.80;100.00
56182;BME280;51963;46.052;14.544;2024-03-02T04:13:07;97457.19;;;7.84;100.00
56182;BME280;51963;46.052;14.544;2024-03-02T04:15:33;97440.94;;;7.73;100.00
56182;BME280;51963;46.052;14.544;2024-03-02T04:18:01;97446.13;;;7.67;100.00
56182;BME280;51963;46.052;14.544;2024-03-02T04:20:27;97438.34;;;7.52;100.00
56182;BME280;51963;46.052;14.544;2024-03-02T04:22:52;97425.53;;;7.42;100.00
56182;BME280;51963;46.052;14.544;2024-03-02T04:25:18;97449.78;;;7.66;100.00
56182;BME280;51963;46.052;14.544;2024-03-02T04:27:47;97450.06;;;7.77;100.00
56182;BME280;51963;46.052;14.544;2024-03-02T04:30:13;97456.28;;;7.70;100.00
56182;BME280;51963;46.052;14.544;2024-03-02T04:32:39;97456.72;;;7.73;100.00
56182;BME280;51963;46.052;14.544;2024-03-02T04:35:05;97451.78;;;7.63;100.00
56182;BME280;51963;46.052;14.544;2024-03-02T04:37:37;97456.09;;;7.71;100.00
56182;BME280;51963;46.052;14.544;2024-03-02T04:40:07;97455.88;;;7.66;100.00
56182;BME280;51963;46.052;14.544;2024-03-02T04:42:34;97442.84;;;7.58;100.00
56182;BME280;51963;46.052;14.544;2024-03-02T04:45:00;97416.34;;;7.31;100.00
56182;BME280;51963;46.052;14.544;2024-03-02T04:47:25;97440.53;;;7.48;100.00
56182;BME280;51963;46.052;14.544;2024-03-02T04:49:55;97419.50;;;7.48;100.00
56182;BME280;51963;46.052;14.544;2024-03-02T04:52:23;97418.47;;;7.42;100.00
56182;BME280;51963;46.052;14.544;2024-03-02T04:54:49;97442.84;;;7.58;100.00
56182;BME280;51963;46.052;14.544;2024-03-02T04:57:36;97465.38;;;7.67;100.00
56182;BME280;51963;46.052;14.544;2024-03-02T05:00:02;97415.97;;;7.34;100.00
56182;BME280;51963;46.052;14.544;2024-03-02T05:02:35;97418.16;;;7.30;100.00
56182;BME280;51963;46.052;14.544;2024-03-02T05:05:01;97460.25;;;7.59;100.00
56182;BME280;51963;46.052;14.544;2024-03-02T05:07:39;97441.25;;;7.35;100.00
56182;BME280;51963;46.052;14.544;2024-03-02T05:10:14;97464.75;;;7.65;100.00
56182;BME280;51963;46.052;14.544;2024-03-02T05:16:15;97401.25;;;7.18;100.00
56182;BME280;51963;46.052;14.544;2024-03-02T05:19:07;97469.53;;;7.55;100.00
56182;BME280;51963;46.052;14.544;2024-03-02T05:21:40;97417.25;;;7.16;100.00
56182;BME280;51963;46.052;14.544;2024-03-02T05:24:06;97452.03;;;7.40;100.00
56182;BME280;51963;46.052;14.544;2024-03-02T05:26:31;97437.31;;;7.24;100.00
56182;BME280;51963;46.052;14.544;2024-03-02T05:28:57;97482.00;;;7.46;100.00
56182;BME280;51963;46.052;14.544;2024-03-02T05:31:22;97476.75;;;7.46;100.00
56182;BME280;51963;46.052;14.544;2024-03-02T05:33:48;97469.22;;;7.43;100.00
56182;BME280;51963;46.052;14.544;2024-03-02T05:36:14;97471.69;;;7.44;100.00
56182;BME280;51963;46.052;14.544;2024-03-02T05:38:40;97478.44;;;7.54;100.00
56182;BME280;51963;46.052;14.544;2024-03-02T05:41:05;97472.78;;;7.57;100.00
56182;BME280;51963;46.052;14.544;2024-03-02T05:43:31;97487.56;;;7.58;100.00
56182;BME280;51963;46.052;14.544;2024-03-02T05:45:58;97482.47;;;7.56;100.00
56182;BME280;51963;46.052;14.544;2024-03-02T05:48:30;97488.56;;;7.57;100.00
56182;BME280;51963;46.052;14.544;2024-03-02T05:50:56;97490.44;;;7.63;100.00
56182;BME280;51963;46.052;14.544;2024-03-02T05:53:21;97494.31;;;7.67;100.00
56182;BME280;51963;46.052;14.544;2024-03-02T05:55:47;97491.47;;;7.69;100.00
56182;BME280;51963;46.052;14.544;2024-03-02T05:58:18;97497.50;;;7.62;100.00
56182;BME280;51963;46.052;14.544;2024-03-02T06:01:17;97491.44;;;7.62;100.00
56182;BME280;51963;46.052;14.544;2024-03-02T06:03:43;97500.28;;;7.54;100.00
56182;BME280;51963;46.052;14.544;2024-03-02T06:06:09;97492.09;;;7.42;100.00
56182;BME280;51963;46.052;14.544;2024-03-02T06:08:40;97499.34;;;7.40;100.00
56182;BME280;51963;46.052;14.544;2024-03-02T06:11:22;97471.25;;;7.19;100.00
56182;BME280;51963;46.052;14.544;2024-03-02T06:13:48;97507.00;;;7.35;100.00
56182;BME280;51963;46.052;14.544;2024-03-02T06:16:13;97514.63;;;7.30;100.00
56182;BME280;51963;46.052;14.544;2024-03-02T06:18:39;97509.25;;;7.38;100.00
56182;BME280;51963;46.052;14.544;2024-03-02T06:21:04;97510.25;;;7.37;100.00
56182;BME280;51963;46.052;14.544;2024-03-02T06:23:30;97502.91;;;7.32;100.00
56182;BME280;51963;46.052;14.544;2024-03-02T06:25:57;97513.06;;;7.36;100.00
56182;BME280;51963;46.052;14.544;2024-03-02T06:28:23;97494.84;;;7.12;100.00
56182;BME280;51963;46.052;14.544;2024-03-02T06:30:49;97530.66;;;7.35;100.00
56182;BME280;51963;46.052;14.544;2024-03-02T06:33:14;97527.47;;;7.40;100.00
56182;BME280;51963;46.052;14.544;2024-03-02T06:35:40;97532.78;;;7.46;100.00
56182;BME280;51963;46.052;14.544;2024-03-02T06:38:06;97523.78;;;7.56;100.00
56182;BME280;51963;46.052;14.544;2024-03-02T06:40:32;97529.28;;;7.61;100.00
56182;BME280;51963;46.052;14.544;2024-03-02T06:42:57;97528.78;;;7.72;100.00
56182;BME280;51963;46.052;14.544;2024-03-02T06:45:23;97534.41;;;7.69;100.00
56182;BME280;51963;46.052;14.544;2024-03-02T06:47:52;97526.28;;;7.64;100.00
56182;BME280;51963;46.052;14.544;2024-03-02T06:50:18;97534.81;;;7.73;100.00
56182;BME280;51963;46.052;14.544;2024-03-02T06:52:44;97538.66;;;7.70;100.00
56182;BME280;51963;46.052;14.544;2024-03-02T06:55:09;97535.53;;;7.82;100.00
56182;BME280;51963;46.052;14.544;2024-03-02T06:57:35;97535.47;;;8.03;100.00
56182;BME280;51963;46.052;14.544;2024-03-02T07:00:00;97531.22;;;8.02;100.00
56182;BME280;51963;46.052;14.544;2024-03-02T07:02:27;97543.09;;;8.20;100.00
56182;BME280;51963;46.052;14.544;2024-03-02T07:04:53;97547.34;;;8.21;100.00
56182;BME280;51963;46.052;14.544;2024-03-02T07:07:19;97547.09;;;8.16;100.00
56182;BME280;51963;46.052;14.544;2024-03-02T07:09:45;97538.72;;;8.34;100.00
56182;BME280;51963;46.052;14.544;2024-03-02T07:12:35;97513.19;;;8.34;100.00
56182;BME280;51963;46.052;14.544;2024-03-02T07:15:01;97545.41;;;8.36;100.00
56182;BME280;51963;46.052;14.544;2024-03-02T07:17:59;97552.84;;;8.26;100.00
56182;BME280;51963;46.052;14.544;2024-03-02T07:20:25;97556.69;;;8.24;100.00
56182;BME280;51963;46.052;14.544;2024-03-02T07:23:00;97534.84;;;8.01;100.00
56182;BME280;51963;46.052;14.544;2024-03-02T07:25:34;97539.09;;;7.96;100.00
56182;BME280;51963;46.052;14.544;2024-03-02T07:28:00;97561.53;;;8.20;100.00
56182;BME280;51963;46.052;14.544;2024-03-02T07:30:25;97562.63;;;8.32;100.00
56182;BME280;51963;46.052;14.544;2024-03-02T07:32:51;97557.41;;;8.39;100.00
56182;BME280;51963;46.052;14.544;2024-03-02T07:35:17;97562.47;;;8.41;100.00
56182;BME280;51963;46.052;14.544;2024-03-02T07:37:43;97571.19;;;8.41;100.00
56182;BME280;51963;46.052;14.544;2024-03-02T07:40:09;97576.94;;;8.23;100.00
56182;BME280;51963;46.052;14.544;2024-03-02T07:42:41;97576.88;;;8.45;100.00
56182;BME280;51963;46.052;14.544;2024-03-02T07:45:07;97575.97;;;8.59;100.00
56182;BME280;51963;46.052;14.544;2024-03-02T07:47:36;97576.97;;;8.58;100.00
56182;BME280;51963;46.052;14.544;2024-03-02T07:50:02;97577.41;;;8.62;100.00
56182;BME280;51963;46.052;14.544;2024-03-02T07:52:32;97577.88;;;8.72;100.00
56182;BME280;51963;46.052;14.544;2024-03-02T07:54:58;97578.25;;;8.69;100.00
56182;BME280;51963;46.052;14.544;2024-03-02T07:57:23;97581.31;;;8.73;100.00
56182;BME280;51963;46.052;14.544;2024-03-02T07:59:50;97583.41;;;8.49;100.00
56182;BME280;51963;46.052;14.544;2024-03-02T08:02:16;97563.63;;;8.31;100.00
56182;BME280;51963;46.052;14.544;2024-03-02T08:04:41;97559.25;;;8.45;100.00
56182;BME280;51963;46.052;14.544;2024-03-02T08:07:10;97563.69;;;8.73;100.00
56182;BME280;51963;46.052;14.544;2024-03-02T08:09:37;97546.28;;;8.44;100.00
56182;BME280;51963;46.052;14.544;2024-03-02T08:12:02;97566.28;;;8.66;100.00
56182;BME280;51963;46.052;14.544;2024-03-02T08:14:28;97566.81;;;8.55;100.00
56182;BME280;51963;46.052;14.544;2024-03-02T08:16:54;97580.06;;;8.69;100.00
56182;BME280;51963;46.052;14.544;2024-03-02T08:19:20;97586.56;;;8.66;100.00
56182;BME280;51963;46.052;14.544;2024-03-02T08:21:45;97577.16;;;8.99;100.00
56182;BME280;51963;46.052;14.544;2024-03-02T08:24:11;97557.91;;;9.05;100.00
56182;BME280;51963;46.052;14.544;2024-03-02T08:26:37;97588.06;;;9.37;100.00
56182;BME280;51963;46.052;14.544;2024-03-02T08:29:02;97583.56;;;9.31;100.00
56182;BME280;51963;46.052;14.544;2024-03-02T08:31:29;97590.78;;;9.09;100.00
56182;BME280;51963;46.052;14.544;2024-03-02T08:33:56;97587.50;;;8.93;100.00
56182;BME280;51963;46.052;14.544;2024-03-02T08:36:23;97581.81;;;8.97;100.00
56182;BME280;51963;46.052;14.544;2024-03-02T08:38:49;97587.88;;;8.90;100.00
56182;BME280;51963;46.052;14.544;2024-03-02T08:41:16;97578.69;;;8.73;100.00
56182;BME280;51963;46.052;14.544;2024-03-02T08:43:42;97568.56;;;8.48;100.00
56182;BME280;51963;46.052;14.544;2024-03-02T08:46:08;97561.28;;;8.43;100.00
56182;BME280;51963;46.052;14.544;2024-03-02T08:48:34;97596.97;;;8.81;100.00
56182;BME280;51963;46.052;14.544;2024-03-02T08:50:59;97590.34;;;8.92;100.00
56182;BME280;51963;46.052;14.544;2024-03-02T08:53:25;97586.94;;;9.05;100.00
56182;BME280;51963;46.052;14.544;2024-03-02T08:55:51;97572.06;;;8.90;100.00
56182;BME280;51963;46.052;14.544;2024-03-02T08:58:18;97590.78;;;9.02;100.00
56182;BME280;51963;46.052;14.544;2024-03-02T09:00:44;97559.09;;;8.95;100.00
56182;BME280;51963;46.052;14.544;2024-03-02T09:03:09;97593.69;;;9.28;100.00
56182;BME280;51963;46.052;14.544;2024-03-02T09:05:35;97588.50;;;9.48;100.00
56182;BME280;51963;46.052;14.544;2024-03-02T09:08:01;97596.41;;;9.54;100.00
56182;BME280;51963;46.052;14.544;2024-03-02T09:10:26;97594.59;;;9.55;100.00
56182;BME280;51963;46.052;14.544;2024-03-02T09:12:52;97590.47;;;9.39;100.00
56182;BME280;51963;46.052;14.544;2024-03-02T09:15:18;97595.03;;;9.65;100.00
56182;BME280;51963;46.052;14.544;2024-03-02T09:17:43;97595.44;;;9.82;100.00
56182;BME280;51963;46.052;14.544;2024-03-02T09:20:10;97593.81;;;10.22;100.00
56182;BME280;51963;46.052;14.544;2024-03-02T09:22:37;97610.06;;;10.46;100.00
56182;BME280;51963;46.052;14.544;2024-03-02T09:25:03;97594.59;;;10.56;100.00
56182;BME280;51963;46.052;14.544;2024-03-02T09:27:28;97602.75;;;10.21;100.00
56182;BME280;51963;46.052;14.544;2024-03-02T09:29:54;97609.47;;;10.37;100.00
56182;BME280;51963;46.052;14.544;2024-03-02T09:32:20;97603.16;;;10.38;100.00
56182;BME280;51963;46.052;14.544;2024-03-02T09:34:45;97606.63;;;10.32;100.00
56182;BME280;51963;46.052;14.544;2024-03-02T09:37:13;97605.19;;;10.36;100.00
56182;BME280;51963;46.052;14.544;2024-03-02T09:39:39;97608.75;;;10.95;100.00
56182;BME280;51963;46.052;14.544;2024-03-02T09:42:05;97601.44;;;10.97;100.00
56182;BME280;51963;46.052;14.544;2024-03-02T09:44:31;97601.28;;;11.70;100.00
56182;BME280;51963;46.052;14.544;2024-03-02T09:46:58;97596.31;;;12.12;100.00
56182;BME280;51963;46.052;14.544;2024-03-02T09:49:24;97594.63;;;12.62;100.00
56182;BME280;51963;46.052;14.544;2024-03-02T09:51:49;97595.38;;;13.06;100.00
56182;BME280;51963;46.052;14.544;2024-03-02T09:54:16;97591.78;;;13.31;100.00
56182;BME280;51963;46.052;14.544;2024-03-02T09:56:42;97584.16;;;13.04;100.00
56182;BME280;51963;46.052;14.544;2024-03-02T09:59:08;97596.09;;;13.14;100.00
56182;BME280;51963;46.052;14.544;2024-03-02T10:01:34;97593.91;;;13.41;100.00
56182;BME280;51963;46.052;14.544;2024-03-02T10:04:00;97559.34;;;13.29;100.00
56182;BME280;51963;46.052;14.544;2024-03-02T10:06:30;97590.91;;;13.68;100.00
56182;BME280;51963;46.052;14.544;2024-03-02T10:08:56;97594.47;;;14.40;100.00
56182;BME280;51963;46.052;14.544;2024-03-02T10:11:26;97573.06;;;14.11;100.00
56182;BME280;51963;46.052;14.544;2024-03-02T10:16:44;97585.56;;;14.22;100.00
56182;BME280;51963;46.052;14.544;2024-03-02T10:19:18;97593.75;;;14.57;100.00
56182;BME280;51963;46.052;14.544;2024-03-02T10:21:54;97563.94;;;14.55;100.00
56182;BME280;51963;46.052;14.544;2024-03-02T10:24:22;97591.56;;;14.53;100.00
56182;BME280;51963;46.052;14.544;2024-03-02T10:26:48;97567.75;;;14.11;100.00
56182;BME280;51963;46.052;14.544;2024-03-02T10:29:15;97566.06;;;13.62;100.00
56182;BME280;51963;46.052;14.544;2024-03-02T10:31:46;97551.44;;;13.11;100.00
56182;BME280;51963;46.052;14.544;2024-03-02T10:34:12;97562.94;;;12.86;100.00
56182;BME280;51963;46.052;14.544;2024-03-02T10:36:42;97589.03;;;12.89;100.00
56182;BME280;51963;46.052;14.544;2024-03-02T10:39:08;97565.03;;;12.84;100.00
56182;BME280;51963;46.052;14.544;2024-03-02T10:41:41;97568.84;;;12.88;100.00
56182;BME280;51963;46.052;14.544;2024-03-02T10:44:08;97578.13;;;12.97;100.00
56182;BME280;51963;46.052;14.544;2024-03-02T10:46:38;97575.59;;;13.21;100.00
56182;BME280;51963;46.052;14.544;2024-03-02T10:49:08;97579.28;;;13.20;100.00
56182;BME280;51963;46.052;14.544;2024-03-02T10:51:34;97557.25;;;13.50;100.00
56182;BME280;51963;46.052;14.544;2024-03-02T10:54:02;97566.91;;;13.75;100.00
56182;BME280;51963;46.052;14.544;2024-03-02T10:56:41;97564.81;;;15.25;100.00
56182;BME280;51963;46.052;14.544;2024-03-02T11:01:55;97566.34;;;18.82;67.37
56182;BME280;51963;46.052;14.544;2024-03-02T11:04:25;97563.38;;;20.46;59.02
56182;BME280;51963;46.052;14.544;2024-03-02T11:06:56;97556.00;;;18.48;61.56
56182;BME280;51963;46.052;14.544;2024-03-02T11:09:26;97563.41;;;18.79;61.50
56182;BME280;51963;46.052;14.544;2024-03-02T11:12:00;97556.16;;;17.93;60.13
56182;BME280;51963;46.052;14.544;2024-03-02T11:14:30;97559.09;;;19.77;58.40
56182;BME280;51963;46.052;14.544;2024-03-02T11:16:58;97563.31;;;17.55;65.75
56182;BME280;51963;46.052;14.544;2024-03-02T11:19:24;97562.34;;;17.66;66.81
56182;BME280;51963;46.052;14.544;2024-03-02T11:21:50;97560.00;;;15.85;72.32
56182;BME280;51963;46.052;14.544;2024-03-02T11:27:58;97548.47;;;16.13;75.72
56182;BME280;51963;46.052;14.544;2024-03-02T11:32:59;97544.16;;;15.90;80.02
56182;BME280;51963;46.052;14.544;2024-03-02T11:35:28;97546.16;;;15.54;83.08
56182;BME280;51963;46.052;14.544;2024-03-02T11:37:54;97540.56;;;17.25;70.31
56182;BME280;51963;46.052;14.544;2024-03-02T11:40:22;97529.00;;;17.19;67.33
56182;BME280;51963;46.052;14.544;2024-03-02T11:42:47;97529.94;;;18.33;61.08
56182;BME280;51963;46.052;14.544;2024-03-02T11:45:17;97522.16;;;17.56;62.87
56182;BME280;51963;46.052;14.544;2024-03-02T11:47:50;97523.22;;;17.00;64.50
56182;BME280;51963;46.052;14.544;2024-03-02T11:50:40;97518.13;;;16.76;64.27
56182;BME280;51963;46.052;14.544;2024-03-02T11:53:08;97509.72;;;17.39;62.32
56182;BME280;51963;46.052;14.544;2024-03-02T11:55:39;97513.44;;;19.10;56.90
56182;BME280;51963;46.052;14.544;2024-03-02T11:58:15;97496.47;;;21.60;49.44
56182;BME280;51963;46.052;14.544;2024-03-02T12:00:53;97505.09;;;20.51;50.57
56182;BME280;51963;46.052;14.544;2024-03-02T12:03:24;97505.97;;;19.23;52.98
56182;BME280;51963;46.052;14.544;2024-03-02T12:06:20;97499.81;;;17.67;57.64
56182;BME280;51963;46.052;14.544;2024-03-02T12:08:52;97502.16;;;17.04;62.25
56182;BME280;51963;46.052;14.544;2024-03-02T12:11:20;97497.38;;;17.33;59.63
56182;BME280;51963;46.052;14.544;2024-03-02T12:13:52;97500.47;;;17.20;60.25
56182;BME280;51963;46.052;14.544;2024-03-02T12:16:28;97497.38;;;16.61;61.83
56182;BME280;51963;46.052;14.544;2024-03-02T12:18:54;97490.47;;;18.02;58.52
56182;BME280;51963;46.052;14.544;2024-03-02T12:21:20;97503.09;;;22.32;47.44
56182;BME280;51963;46.052;14.544;2024-03-02T12:23:45;97492.78;;;25.32;40.57
56182;BME280;51963;46.052;14.544;2024-03-02T12:26:11;97506.34;;;25.55;38.80
56182;BME280;51963;46.052;14.544;2024-03-02T12:28:37;97494.88;;;21.94;45.38
56182;BME280;51963;46.052;14.544;2024-03-02T12:31:03;97485.91;;;20.03;51.43
56182;BME280;51963;46.052;14.544;2024-03-02T12:33:29;97486.78;;;18.14;57.90
56182;BME280;51963;46.052;14.544;2024-03-02T12:35:57;97480.03;;;17.68;60.80
56182;BME280;51963;46.052;14.544;2024-03-02T12:38:26;97467.63;;;17.95;59.02
56182;BME280;51963;46.052;14.544;2024-03-02T12:40:52;97472.28;;;17.72;59.88
56182;BME280;51963;46.052;14.544;2024-03-02T12:43:18;97469.63;;;16.62;66.71
56182;BME280;51963;46.052;14.544;2024-03-02T12:45:44;97472.69;;;16.09;71.42
56182;BME280;51963;46.052;14.544;2024-03-02T12:52:00;97458.97;;;15.15;77.12
56182;BME280;51963;46.052;14.544;2024-03-02T12:54:25;97475.66;;;14.81;80.80
56182;BME280;51963;46.052;14.544;2024-03-02T12:56:52;97485.41;;;14.76;80.21
56182;BME280;51963;46.052;14.544;2024-03-02T12:59:21;97475.78;;;14.63;86.89
56182;BME280;51963;46.052;14.544;2024-03-02T13:05:13;97477.97;;;13.77;97.14
56182;BME280;51963;46.052;14.544;2024-03-02T13:07:39;97477.59;;;13.50;98.46
56182;BME280;51963;46.052;14.544;2024-03-02T13:10:06;97477.13;;;13.23;99.33
56182;BME280;51963;46.052;14.544;2024-03-02T13:12:33;97486.81;;;12.86;100.00
56182;BME280;51963;46.052;14.544;2024-03-02T13:15:02;97483.41;;;12.11;100.00
56182;BME280;51963;46.052;14.544;2024-03-02T13:17:29;97484.88;;;11.56;100.00